80TX weather

Resaca Airstrip
Brownsville, Texas, United States

Public forecast

Using degrees Fahrenheit for public forecast. Weather courtesy of forecast.io.

Closest aviation weather report (METAR) to Resaca Airstrip

Closest report is Brownsville South Padre Island International Airport, 1.5 nm (2.8 km) SW. Retrieved 2019/10/18 00:07 UTC (16 minutes ago):

KBRO 180007Z 35009KT 10SM SCT017 BKN065 OVC085 23/19 A2985 RMK AO2 T02330194

Closest aviation forecast (TAF) to Resaca Airstrip

Closest forecast is Brownsville South Padre Island International Airport, 1.5 nm (2.8 km) SW. Retrieved 2019-10-18 00:22 UTC (49 seconds ago):

TAF KBRO 172320Z 1800/1824 35009KT P6SM VCSH BKN019 OVC060 FM180500 34005KT P6SM OVC035 TEMPO 1805/1809 -RA OVC025